CheckWX is a tool to help pilots better visualize weather data.  It is not intended as a substitute for an official pre-flight weather briefing.

15:51:41 UTC

28J METAR
Palatka Municipal - Lt Kay Larkin Field Airport
Palatka, Florida, USA
Current

17 mins ago

K28J 141535Z AUTO 28009G16KT 10SM FEW019 18/14 A2980 RMK AO2 LTG DSNT SE
Observed
Dec-14 @ 15:35 UTC
Wind
  • 280° at 9 KTS
  • Gusting to 16 KTS
Visibility
10 SM
Flight Rules
VFR
Cloud Levels
  • Few at 1,900' AGL
Temperature
18°C / 64°F
Dewpoint
14°C / 57°F
Humidity
78%
Altimeter
29.8" Hg
Pressure
1009.12 hPa
Previous

37 mins ago

K28J 141515Z AUTO 29012G17KT 10SM SCT080 18/14 A2980 RMK AO2
Observed
Dec-14 @ 15:15 UTC
Wind
  • 290° at 12 KTS
  • Gusting to 17 KTS
Visibility
10 SM
Flight Rules
VFR
Cloud Levels
  • Scattered at 8,000' AGL
Temperature
18°C / 64°F
Dewpoint
14°C / 57°F
Humidity
78%
Altimeter
29.8" Hg
Pressure
1009.12 hPa
Previous

57 mins ago

K28J 141455Z AUTO 29012G17KT 10SM BKN080 18/14 A2980 RMK AO2
Observed
Dec-14 @ 14:55 UTC
Wind
  • 290° at 12 KTS
  • Gusting to 17 KTS
Visibility
10 SM
Flight Rules
VFR
Cloud Levels
  • Broken at 8,000' AGL
Temperature
18°C / 64°F
Dewpoint
14°C / 57°F
Humidity
78%
Altimeter
29.8" Hg
Pressure
1009.12 hPa